Time;durP1;ratioP1;P1;durP2;ratioP2;P2;SDS_P1;SDS_P2;PMS_P1;PMS_P2;Temp;Humidity;BMP_temperature;BMP_pressure;BME280_temperature;BME280_humidity;BME280_pressure;Samples;Min_cycle;Max_cycle;Signal;HPM_P1;HPM_P2
2022/12/10 00:01:13;;;;;;;;;;;;;;;36.20;nan;101760.94;5072734;28;20020;-59
2022/12/10 00:03:40;;;;;;;;;;;;;;;36.77;nan;101740.59;5082922;28;19928;-57
2022/12/10 00:06:08;;;;;;;;;;;;;;;36.44;nan;101744.16;5079232;28;20355;-58
2022/12/10 00:08:35;;;;;;;;;;;;;;;35.90;nan;101749.41;5089942;28;20420;-58
2022/12/10 00:11:05;;;;;;;;;;;;;;;36.47;nan;101751.84;5075938;28;19924;-61
2022/12/10 00:13:33;;;;;;;;;;;;;;;36.50;nan;101748.19;5083013;28;20048;-60
2022/12/10 00:15:59;;;;;;;;;;;;;;;36.48;nan;101744.97;5073269;28;19966;-61
2022/12/10 00:18:26;;;;;;;;;;;;;;;36.22;nan;101746.34;5075711;28;19920;-59
2022/12/10 00:20:52;;;;;;;;;;;;;;;36.13;nan;101741.19;5084755;28;19916;-60
2022/12/10 00:23:18;;;;;;;;;;;;;;;36.16;nan;101728.22;5085419;28;19943;-60
2022/12/10 00:25:45;;;;;;;;;;;;;;;35.45;nan;101729.47;5084193;28;19939;-60
2022/12/10 00:28:11;;;;;;;;;;;;;;;36.02;nan;101737.63;5077184;28;19967;-58
2022/12/10 00:30:37;;;;;;;;;;;;;;;35.94;nan;101736.88;5083924;28;19924;-59
2022/12/10 00:33:04;;;;;;;;;;;;;;;35.83;nan;101738.13;5072236;28;19920;-59
2022/12/10 00:35:30;;;;;;;;;;;;;;;35.67;nan;101733.78;5082116;28;19924;-61
2022/12/10 00:37:56;;;;;;;;;;;;;;;35.42;nan;101738.78;5088513;28;19931;-61
2022/12/10 00:40:23;;;;;;;;;;;;;;;35.13;nan;101744.50;5074836;28;20396;-59
2022/12/10 00:42:49;;;;;;;;;;;;;;;35.01;nan;101736.50;5071641;28;19920;-60
2022/12/10 00:45:15;;;;;;;;;;;;;;;34.98;nan;101747.78;5070842;28;19962;-61
2022/12/10 00:47:41;;;;;;;;;;;;;;;34.87;nan;101745.00;5071875;28;20041;-61
2022/12/10 00:50:08;;;;;;;;;;;;;;;34.79;nan;101755.47;5079901;28;19956;-60
2022/12/10 00:52:34;;;;;;;;;;;;;;;34.82;nan;101749.00;5084909;28;20007;-61
2022/12/10 00:55:00;;;;;;;;;;;;;;;34.66;nan;101748.66;5087790;28;20382;-60
2022/12/10 00:57:27;;;;;;;;;;;;;;;34.68;nan;101751.88;5072473;28;19927;-61
2022/12/10 00:59:53;;;;;;;;;;;;;;;34.49;nan;101760.78;5054176;28;20365;-61
2022/12/10 01:02:20;;;;;;;;;;;;;;;34.30;nan;101750.66;5058867;28;19928;-61
2022/12/10 01:04:47;;;;;;;;;;;;;;;34.14;nan;101755.91;5054636;28;20290;-61
2022/12/10 01:07:13;;;;;;;;;;;;;;;34.20;nan;101755.09;5072210;28;19968;-61
2022/12/10 01:09:39;;;;;;;;;;;;;;;34.22;nan;101760.31;5044447;28;20436;-60
2022/12/10 01:12:06;;;;;;;;;;;;;;;34.15;nan;101763.16;5066899;28;19965;-61
2022/12/10 01:14:33;;;;;;;;;;;;;;;34.06;nan;101759.91;5071362;28;19969;-60
2022/12/10 01:17:04;;;;;;;;;;;;;;;34.11;nan;101756.69;5057277;28;20057;-61
2022/12/10 01:19:32;;;;;;;;;;;;;;;34.04;nan;101760.31;5069573;28;19960;-61
2022/12/10 01:22:01;;;;;;;;;;;;;;;34.06;nan;101759.91;5053537;28;19960;-62
2022/12/10 01:24:29;;;;;;;;;;;;;;;34.04;nan;101756.69;5069290;28;19928;-61
2022/12/10 01:26:55;;;;;;;;;;;;;;;33.94;nan;101761.13;5054191;28;19917;-62
2022/12/10 01:29:21;;;;;;;;;;;;;;;33.81;nan;101763.47;5070917;28;19928;-61
2022/12/10 01:31:51;;;;;;;;;;;;;;;33.82;nan;101762.25;5061979;28;19917;-61
2022/12/10 01:34:17;;;;;;;;;;;;;;;33.74;nan;101763.44;5054417;28;19920;-61
2022/12/10 01:36:44;;;;;;;;;;;;;;;33.77;nan;101762.66;5053463;28;19924;-60
2022/12/10 01:39:12;;;;;;;;;;;;;;;33.67;nan;101771.09;5053638;28;19924;-61
2022/12/10 01:41:41;;;;;;;;;;;;;;;33.53;nan;101760.56;5072065;28;19920;-62
2022/12/10 01:44:09;;;;;;;;;;;;;;;33.49;nan;101759.75;5070962;28;20398;-60
2022/12/10 01:46:36;;;;;;;;;;;;;;;33.40;nan;101757.31;5072296;28;19920;-60
2022/12/10 01:49:04;;;;;;;;;;;;;;;33.32;nan;101761.25;5072119;28;20019;-60
2022/12/10 01:51:32;;;;;;;;;;;;;;;33.37;nan;101760.91;5063658;28;19916;-60
2022/12/10 01:53:58;;;;;;;;;;;;;;;33.40;nan;101767.78;5071570;28;20704;-61
2022/12/10 01:56:25;;;;;;;;;;;;;;;33.28;nan;101771.72;5052239;28;19920;-61
2022/12/10 01:58:53;;;;;;;;;;;;;;;33.16;nan;101777.69;5070658;28;20008;-60
2022/12/10 02:01:23;;;;;;;;;;;;;;;33.18;nan;101778.09;5074253;28;19952;-60
2022/12/10 02:04:05;;;;;;;;;;;;;;;33.13;nan;101773.63;5081656;28;20370;-61
2022/12/10 02:06:39;;;;;;;;;;;;;;;33.14;nan;101768.81;5075940;28;19966;-60
2022/12/10 02:09:24;;;;;;;;;;;;;;;33.16;nan;101772.84;5090100;28;19966;-61
2022/12/10 02:11:53;;;;;;;;;;;;;;;33.24;nan;101766.06;5073480;28;19924;-61
2022/12/10 02:14:26;;;;;;;;;;;;;;;33.25;nan;101773.31;5091593;28;20285;-60
2022/12/10 02:16:55;;;;;;;;;;;;;;;33.19;nan;101779.69;5095345;27;19927;-60
2022/12/10 02:19:30;;;;;;;;;;;;;;;33.15;nan;101782.50;5087491;28;20444;-61
2022/12/10 02:21:57;;;;;;;;;;;;;;;33.06;nan;101782.06;5108930;27;19924;-61
2022/12/10 02:24:30;;;;;;;;;;;;;;;32.92;nan;101779.16;5090939;28;20011;-59
2022/12/10 02:26:57;;;;;;;;;;;;;;;32.82;nan;101771.44;5093016;28;19989;-60
2022/12/10 02:29:26;;;;;;;;;;;;;;;32.84;nan;101774.66;5076237;28;19916;-61
2022/12/10 02:32:06;;;;;;;;;;;;;;;32.93;nan;101766.69;5077292;28;19929;-60
2022/12/10 02:34:37;;;;;;;;;;;;;;;32.86;nan;101769.47;5072137;28;19927;-60
2022/12/10 02:37:06;;;;;;;;;;;;;;;32.72;nan;101775.78;5100170;28;19927;-60
2022/12/10 02:39:36;;;;;;;;;;;;;;;32.67;nan;101770.47;5081145;28;19924;-60
2022/12/10 02:42:06;;;;;;;;;;;;;;;32.58;nan;101768.03;5082548;28;20006;-59
2022/12/10 02:44:34;;;;;;;;;;;;;;;32.56;nan;101781.69;5080268;28;19962;-60
2022/12/10 02:47:02;;;;;;;;;;;;;;;32.59;nan;101780.91;5118318;27;19924;-60
2022/12/10 02:49:35;;;;;;;;;;;;;;;32.50;nan;101777.63;5084037;28;19931;-60
2022/12/10 02:52:12;;;;;;;;;;;;;;;32.29;nan;101788.66;5081514;28;19967;-62
2022/12/10 02:54:43;;;;;;;;;;;;;;;32.12;nan;101790.88;5081039;28;20394;-60
2022/12/10 02:57:28;;;;;;;;;;;;;;;32.22;nan;101783.75;5068841;28;20314;-58
2022/12/10 02:59:57;;;;;;;;;;;;;;;32.19;nan;101773.28;5073878;28;19925;-61
2022/12/10 03:02:29;;;;;;;;;;;;;;;32.06;nan;101789.63;5064556;28;19963;-60
2022/12/10 03:05:05;;;;;;;;;;;;;;;31.54;nan;101799.03;5066007;28;19982;-59
2022/12/10 03:07:54;;;;;;;;;;;;;;;31.56;nan;101799.47;5074525;28;19920;-60
2022/12/10 03:10:27;;;;;;;;;;;;;;;31.88;nan;101799.88;5058749;28;20025;-59
2022/12/10 03:12:58;;;;;;;;;;;;;;;31.92;nan;101802.72;5068774;28;19921;-60
2022/12/10 03:15:26;;;;;;;;;;;;;;;31.92;nan;101803.53;5074087;28;20371;-60
2022/12/10 03:17:54;;;;;;;;;;;;;;;31.89;nan;101798.69;5055491;28;20058;-58
2022/12/10 03:20:22;;;;;;;;;;;;;;;31.97;nan;101800.41;5025306;28;19936;-60
2022/12/10 03:22:48;;;;;;;;;;;;;;;32.03;nan;101796.03;5064746;28;19924;-60
2022/12/10 03:25:17;;;;;;;;;;;;;;;32.00;nan;101799.63;5056228;28;19993;-63
2022/12/10 03:27:45;;;;;;;;;;;;;;;31.86;nan;101810.72;5067928;28;19923;-61
2022/12/10 03:30:12;;;;;;;;;;;;;;;31.74;nan;101808.16;5055762;28;20322;-59
2022/12/10 03:32:38;;;;;;;;;;;;;;;31.78;nan;101811.84;5066343;28;19920;-58
2022/12/10 03:35:06;;;;;;;;;;;;;;;31.85;nan;101812.72;5064249;28;19924;-59
2022/12/10 03:37:32;;;;;;;;;;;;;;;31.77;nan;101818.63;5067687;28;19917;-59
2022/12/10 03:39:59;;;;;;;;;;;;;;;31.63;nan;101822.06;5057250;28;20031;-60
2022/12/10 03:42:25;;;;;;;;;;;;;;;31.65;nan;101821.69;5062460;28;19917;-60
2022/12/10 03:44:52;;;;;;;;;;;;;;;31.75;nan;101815.38;5061735;28;19916;-61
2022/12/10 03:47:19;;;;;;;;;;;;;;;31.76;nan;101819.81;5073728;28;20377;-59
2022/12/10 03:49:45;;;;;;;;;;;;;;;31.75;nan;101821.00;5057924;28;20021;-59
2022/12/10 03:52:12;;;;;;;;;;;;;;;31.70;nan;101819.31;5070174;28;19920;-60
2022/12/10 03:54:38;;;;;;;;;;;;;;;31.61;nan;101827.25;5057015;28;20023;-59
2022/12/10 03:57:04;;;;;;;;;;;;;;;31.62;nan;101816.81;5077163;28;19920;-58
2022/12/10 03:59:31;;;;;;;;;;;;;;;31.56;nan;101825.56;5080012;28;19924;-59
2022/12/10 04:01:57;;;;;;;;;;;;;;;31.53;nan;101825.53;5089794;28;19927;-59
2022/12/10 04:04:24;;;;;;;;;;;;;;;31.50;nan;101821.50;5077500;28;20282;-59
2022/12/10 04:06:50;;;;;;;;;;;;;;;31.43;nan;101826.22;5085297;28;19920;-60
2022/12/10 04:09:17;;;;;;;;;;;;;;;31.37;nan;101828.53;5084756;28;19916;-61
2022/12/10 04:11:43;;;;;;;;;;;;;;;31.34;nan;101834.91;5078139;28;20394;-60
2022/12/10 04:16:55;;;;;;;;;;;;;;;31.15;nan;101837.81;5081603;28;19920;-59
2022/12/10 04:19:21;;;;;;;;;;;;;;;31.11;nan;101849.00;5080931;28;19916;-58
2022/12/10 04:27:25;;;;;;;;;;;;;;;30.98;nan;101844.78;5073221;28;19983;-59
2022/12/10 04:29:52;;;;;;;;;;;;;;;30.97;nan;101843.97;5071836;28;19985;-60
2022/12/10 04:32:19;;;;;;;;;;;;;;;30.88;nan;101851.84;5076526;28;19957;-59
2022/12/10 04:34:45;;;;;;;;;;;;;;;30.82;nan;101847.72;5085738;28;19927;-60
2022/12/10 04:37:12;;;;;;;;;;;;;;;30.74;nan;101854.41;5083396;28;19963;-59
2022/12/10 04:39:39;;;;;;;;;;;;;;;30.70;nan;101853.53;5078185;28;19924;-60
2022/12/10 04:42:05;;;;;;;;;;;;;;;30.71;nan;101854.38;5081195;28;19916;-61
2022/12/10 04:44:32;;;;;;;;;;;;;;;30.71;nan;101858.00;5078719;28;19920;-60
2022/12/10 04:46:58;;;;;;;;;;;;;;;30.65;nan;101867.88;5083696;28;19991;-61
2022/12/10 04:49:25;;;;;;;;;;;;;;;30.51;nan;101870.41;5086169;28;19924;-60
2022/12/10 04:51:52;;;;;;;;;;;;;;;30.50;nan;101871.59;5089639;28;20045;-60
2022/12/10 04:54:19;;;;;;;;;;;;;;;30.48;nan;101866.34;5076350;28;19978;-60
2022/12/10 04:56:45;;;;;;;;;;;;;;;30.48;nan;101871.97;5085174;28;19920;-61
2022/12/10 04:59:12;;;;;;;;;;;;;;;30.60;nan;101868.97;5083428;28;20370;-60
2022/12/10 05:01:38;;;;;;;;;;;;;;;30.63;nan;101879.50;5078083;28;19921;-60
2022/12/10 05:04:06;;;;;;;;;;;;;;;30.62;nan;101877.06;5089192;28;19955;-60
2022/12/10 05:06:33;;;;;;;;;;;;;;;30.51;nan;101879.63;5078005;28;19922;-60
2022/12/10 05:09:00;;;;;;;;;;;;;;;30.43;nan;101879.88;5083258;28;20009;-60
2022/12/10 05:11:28;;;;;;;;;;;;;;;30.46;nan;101890.34;5085576;28;19955;-60
2022/12/10 05:13:55;;;;;;;;;;;;;;;30.43;nan;101885.50;5075880;28;19920;-60
2022/12/10 05:16:23;;;;;;;;;;;;;;;30.40;nan;101887.06;5071013;28;19923;-59
2022/12/10 05:18:50;;;;;;;;;;;;;;;30.52;nan;101894.47;5080631;28;19920;-60
2022/12/10 05:21:17;;;;;;;;;;;;;;;29.63;nan;101890.66;5087519;28;19916;-60
2022/12/10 05:23:44;;;;;;;;;;;;;;;29.79;nan;101887.78;5076895;28;19947;-59
2022/12/10 05:26:12;;;;;;;;;;;;;;;30.04;nan;101896.75;5068726;28;19944;-59
2022/12/10 05:28:40;;;;;;;;;;;;;;;30.06;nan;101898.00;5087188;28;19923;-59
2022/12/10 05:31:18;;;;;;;;;;;;;;;29.90;nan;101900.03;5081010;28;20363;-59
2022/12/10 05:33:44;;;;;;;;;;;;;;;30.09;nan;101904.88;5086464;28;19931;-58
2022/12/10 05:36:11;;;;;;;;;;;;;;;30.15;nan;101897.78;5079160;28;19921;-58
2022/12/10 05:38:39;;;;;;;;;;;;;;;30.20;nan;101905.91;5090273;28;19963;-59
2022/12/10 05:41:07;;;;;;;;;;;;;;;30.21;nan;101901.09;5086281;28;19917;-60
2022/12/10 05:43:34;;;;;;;;;;;;;;;30.20;nan;101897.50;5082296;28;19921;-58
2022/12/10 05:46:01;;;;;;;;;;;;;;;30.29;nan;101900.88;5078076;28;19920;-59
2022/12/10 05:48:28;;;;;;;;;;;;;;;30.26;nan;101887.59;5090516;28;20410;-59
2022/12/10 05:50:55;;;;;;;;;;;;;;;30.13;nan;101900.13;5081941;28;19916;-59
2022/12/10 05:53:21;;;;;;;;;;;;;;;30.12;nan;101895.72;5065762;28;20360;-59
2022/12/10 05:55:47;;;;;;;;;;;;;;;30.07;nan;101896.03;5063390;28;19971;-60
2022/12/10 05:58:14;;;;;;;;;;;;;;;30.03;nan;101895.94;5071209;28;19990;-61
2022/12/10 06:00:40;;;;;;;;;;;;;;;29.97;nan;101888.16;5059148;28;19921;-61
2022/12/10 06:03:07;;;;;;;;;;;;;;;30.10;nan;101895.28;5072617;28;19933;-61
2022/12/10 06:05:38;;;;;;;;;;;;;;;30.01;nan;101898.28;5070296;28;19916;-61
2022/12/10 06:08:05;;;;;;;;;;;;;;;30.04;nan;101903.19;5073229;28;20327;-60
2022/12/10 06:10:31;;;;;;;;;;;;;;;30.03;nan;101906.31;5071947;28;19938;-61
2022/12/10 06:12:57;;;;;;;;;;;;;;;29.89;nan;101906.03;5067784;28;19927;-60
2022/12/10 06:15:24;;;;;;;;;;;;;;;29.92;nan;101902.47;5071460;28;20397;-60
2022/12/10 06:17:50;;;;;;;;;;;;;;;29.85;nan;101911.56;5066675;28;20645;-61
2022/12/10 06:20:16;;;;;;;;;;;;;;;29.84;nan;101920.34;5068412;28;20010;-58
2022/12/10 06:22:43;;;;;;;;;;;;;;;29.73;nan;101926.50;5070390;28;19920;-59
2022/12/10 06:25:09;;;;;;;;;;;;;;;29.74;nan;101925.31;5063389;28;19925;-59
2022/12/10 06:27:35;;;;;;;;;;;;;;;29.71;nan;101931.66;5068209;28;19972;-59
2022/12/10 06:30:02;;;;;;;;;;;;;;;29.64;nan;101928.72;5068697;28;19943;-59
2022/12/10 06:32:28;;;;;;;;;;;;;;;29.66;nan;101931.97;5069424;28;19927;-58
2022/12/10 06:34:54;;;;;;;;;;;;;;;29.63;nan;101927.09;5071355;28;19920;-61
2022/12/10 06:37:21;;;;;;;;;;;;;;;29.54;nan;101934.06;5074338;28;19927;-60
2022/12/10 06:39:47;;;;;;;;;;;;;;;29.45;nan;101925.84;5070150;28;19921;-60
2022/12/10 06:42:14;;;;;;;;;;;;;;;29.47;nan;101917.91;5068512;28;20572;-60
2022/12/10 06:44:40;;;;;;;;;;;;;;;29.39;nan;101928.09;5070748;28;20288;-61
2022/12/10 06:47:07;;;;;;;;;;;;;;;29.41;nan;101930.53;5073208;28;19920;-60
2022/12/10 06:49:33;;;;;;;;;;;;;;;29.27;nan;101930.22;5069140;28;19916;-61
2022/12/10 06:52:00;;;;;;;;;;;;;;;29.33;nan;101928.75;5070968;28;19931;-61
2022/12/10 06:54:26;;;;;;;;;;;;;;;29.30;nan;101921.06;5069140;28;19920;-61
2022/12/10 06:56:52;;;;;;;;;;;;;;;29.17;nan;101915.56;5068550;28;19963;-59
2022/12/10 06:59:20;;;;;;;;;;;;;;;29.11;nan;101921.81;5067443;28;19924;-59
2022/12/10 07:01:46;;;;;;;;;;;;;;;28.95;nan;101919.03;5072485;28;20051;-61
2022/12/10 07:04:13;;;;;;;;;;;;;;;28.98;nan;101914.69;5069584;28;19924;-58
2022/12/10 07:06:39;;;;;;;;;;;;;;;29.04;nan;101922.44;5064285;28;19924;-58
2022/12/10 07:09:05;;;;;;;;;;;;;;;29.04;nan;101928.03;5070690;28;19959;-59
2022/12/10 07:11:32;;;;;;;;;;;;;;;29.12;nan;101924.25;5068403;28;19921;-60
2022/12/10 07:13:58;;;;;;;;;;;;;;;29.06;nan;101920.09;5071756;28;20303;-60
2022/12/10 07:16:26;;;;;;;;;;;;;;;29.07;nan;101927.31;5067533;28;19975;-60
2022/12/10 07:18:53;;;;;;;;;;;;;;;29.04;nan;101922.44;5062383;28;19920;-59
2022/12/10 07:21:27;;;;;;;;;;;;;;;28.98;nan;101915.50;5066000;28;19921;-60
2022/12/10 07:23:57;;;;;;;;;;;;;;;28.83;nan;101910.69;5063009;28;19924;-59
2022/12/10 07:26:28;;;;;;;;;;;;;;;29.03;nan;101906.81;5069070;28;20011;-60
2022/12/10 07:28:54;;;;;;;;;;;;;;;28.95;nan;101902.22;5069673;28;20315;-61
2022/12/10 07:31:21;;;;;;;;;;;;;;;28.83;nan;101893.88;5072522;28;19916;-60
2022/12/10 07:33:48;;;;;;;;;;;;;;;28.85;nan;101891.53;5069375;28;19948;-60
2022/12/10 07:36:15;;;;;;;;;;;;;;;28.84;nan;101890.72;5067783;28;19939;-59
2022/12/10 07:38:41;;;;;;;;;;;;;;;28.80;nan;101897.41;5067329;28;20055;-60
2022/12/10 07:41:11;;;;;;;;;;;;;;;28.81;nan;101885.03;5067037;28;19932;-60
2022/12/10 07:43:39;;;;;;;;;;;;;;;28.65;nan;101887.03;5068332;28;19920;-60
2022/12/10 07:46:12;;;;;;;;;;;;;;;28.58;nan;101885.66;5066413;28;19971;-59
2022/12/10 07:48:40;;;;;;;;;;;;;;;28.64;nan;101883.41;5066008;28;20014;-60
2022/12/10 07:51:06;;;;;;;;;;;;;;;28.62;nan;101884.94;5070105;28;19916;-59
2022/12/10 07:53:34;;;;;;;;;;;;;;;28.59;nan;101878.91;5064988;28;19920;-60
2022/12/10 07:56:00;;;;;;;;;;;;;;;28.56;nan;101879.63;5070777;28;19979;-59
2022/12/10 07:58:27;;;;;;;;;;;;;;;28.70;nan;101872.75;5062702;28;20009;-59
2022/12/10 08:00:54;;;;;;;;;;;;;;;28.70;nan;101872.75;5063309;28;19933;-59
2022/12/10 08:03:20;;;;;;;;;;;;;;;28.69;nan;101871.13;5065033;28;19921;-59
2022/12/10 08:05:46;;;;;;;;;;;;;;;28.67;nan;101873.47;5062122;28;19932;-59
2022/12/10 08:08:13;;;;;;;;;;;;;;;28.53;nan;101869.13;5067050;28;20060;-60
2022/12/10 08:10:39;;;;;;;;;;;;;;;28.53;nan;101873.91;5068637;28;19920;-59
2022/12/10 08:13:06;;;;;;;;;;;;;;;28.38;nan;101866.34;5061325;28;19921;-59
2022/12/10 08:15:32;;;;;;;;;;;;;;;28.38;nan;101855.97;5060924;28;19943;-59
2022/12/10 08:17:58;;;;;;;;;;;;;;;28.32;nan;101849.00;5060512;28;21205;-60
2022/12/10 08:20:24;;;;;;;;;;;;;;;28.42;nan;101856.88;5064836;28;19920;-60
2022/12/10 08:22:51;;;;;;;;;;;;;;;28.50;nan;101853.06;5066855;28;20287;-60
2022/12/10 08:25:17;;;;;;;;;;;;;;;28.48;nan;101854.59;5068842;28;20023;-59
2022/12/10 08:27:44;;;;;;;;;;;;;;;28.46;nan;101851.34;5063339;28;19966;-61
2022/12/10 08:30:10;;;;;;;;;;;;;;;28.25;nan;101848.78;5069076;28;19943;-59
2022/12/10 08:32:36;;;;;;;;;;;;;;;28.31;nan;101844.56;5064833;28;19928;-60
2022/12/10 08:35:02;;;;;;;;;;;;;;;28.39;nan;101843.59;5067768;28;19927;-59
2022/12/10 08:37:29;;;;;;;;;;;;;;;28.35;nan;101842.69;5067090;28;20294;-59
2022/12/10 08:39:55;;;;;;;;;;;;;;;28.39;nan;101835.22;5098243;28;19920;-60
2022/12/10 08:42:23;;;;;;;;;;;;;;;28.28;nan;101836.91;5066437;28;19920;-60
2022/12/10 08:44:50;;;;;;;;;;;;;;;28.17;nan;101836.56;5065386;28;20363;-61
2022/12/10 08:47:16;;;;;;;;;;;;;;;28.17;nan;101838.56;5062776;28;19993;-59
2022/12/10 08:49:42;;;;;;;;;;;;;;;28.08;nan;101832.34;5066556;28;20007;-59
2022/12/10 08:52:09;;;;;;;;;;;;;;;28.16;nan;101834.13;5071253;28;19928;-58
2022/12/10 08:54:35;;;;;;;;;;;;;;;28.18;nan;101834.59;5075121;28;20354;-58
2022/12/10 08:57:01;;;;;;;;;;;;;;;28.21;nan;101828.31;5073868;28;19928;-58
2022/12/10 08:59:27;;;;;;;;;;;;;;;28.28;nan;101834.09;5073496;28;19920;-58
2022/12/10 09:01:54;;;;;;;;;;;;;;;28.22;nan;101829.94;5073888;28;19962;-58
2022/12/10 09:04:20;;;;;;;;;;;;;;;28.17;nan;101838.56;5075463;28;19961;-59
2022/12/10 09:06:46;;;;;;;;;;;;;;;28.25;nan;101834.81;5073493;28;19928;-61
2022/12/10 09:09:13;;;;;;;;;;;;;;;28.20;nan;101826.69;5072753;28;19916;-59
2022/12/10 09:11:40;;;;;;;;;;;;;;;28.24;nan;101822.00;5074337;28;19967;-59
2022/12/10 09:14:06;;;;;;;;;;;;;;;28.18;nan;101817.81;5076174;28;20374;-59
2022/12/10 09:16:34;;;;;;;;;;;;;;;27.90;nan;101826.25;5077893;28;19920;-60
2022/12/10 09:19:00;;;;;;;;;;;;;;;27.93;nan;101823.53;5082381;28;19916;-60
2022/12/10 09:21:27;;;;;;;;;;;;;;;28.09;nan;101829.19;5084857;28;20400;-60
2022/12/10 09:23:54;;;;;;;;;;;;;;;27.95;nan;101840.75;5075380;28;19916;-60
2022/12/10 09:26:21;;;;;;;;;;;;;;;27.88;nan;101834.97;5088385;28;20306;-60
2022/12/10 09:28:47;;;;;;;;;;;;;;;27.81;nan;101842.31;5079543;28;20024;-60
2022/12/10 09:31:14;;;;;;;;;;;;;;;27.81;nan;101840.34;5080822;28;20317;-60
2022/12/10 09:33:41;;;;;;;;;;;;;;;27.78;nan;101837.47;5086878;28;19936;-60
2022/12/10 09:36:09;;;;;;;;;;;;;;;27.81;nan;101836.75;5073894;28;19932;-60
2022/12/10 09:38:37;;;;;;;;;;;;;;;27.84;nan;101841.66;5085525;28;20382;-59
2022/12/10 09:41:20;;;;;;;;;;;;;;;27.84;nan;101836.06;5071043;28;19920;-58
2022/12/10 09:43:49;;;;;;;;;;;;;;;27.85;nan;101846.06;5076966;28;19955;-58
2022/12/10 09:46:18;;;;;;;;;;;;;;;27.83;nan;101835.25;5088303;28;19916;-58
2022/12/10 09:48:50;;;;;;;;;;;;;;;27.89;nan;101844.19;5072385;28;20340;-58
2022/12/10 09:51:23;;;;;;;;;;;;;;;27.93;nan;101836.69;5083552;28;20445;-58
2022/12/10 09:53:57;;;;;;;;;;;;;;;27.67;nan;101843.56;5075088;28;19928;-58
2022/12/10 09:56:34;;;;;;;;;;;;;;;27.65;nan;101845.09;5071928;28;19920;-58
2022/12/10 09:59:04;;;;;;;;;;;;;;;27.65;nan;101845.91;5050497;28;19966;-58
2022/12/10 10:01:33;;;;;;;;;;;;;;;27.55;nan;101843.56;5067497;28;19967;-58
2022/12/10 10:03:59;;;;;;;;;;;;;;;27.52;nan;101846.25;5069096;28;20023;-58
2022/12/10 10:06:27;;;;;;;;;;;;;;;27.67;nan;101842.75;5058523;28;19921;-59
2022/12/10 10:08:56;;;;;;;;;;;;;;;27.65;nan;101842.28;5059342;28;20008;-58
2022/12/10 10:11:31;;;;;;;;;;;;;;;27.55;nan;101837.16;5063528;28;19943;-59
2022/12/10 10:14:04;;;;;;;;;;;;;;;27.56;nan;101834.00;5066101;28;20266;-58
2022/12/10 10:16:39;;;;;;;;;;;;;;;27.64;nan;101827.47;5071704;28;20020;-58
2022/12/10 10:19:13;;;;;;;;;;;;;;;27.70;nan;101825.28;5071522;28;20378;-59
2022/12/10 10:21:45;;;;;;;;;;;;;;;27.65;nan;101817.16;5053378;28;20315;-59
2022/12/10 10:24:16;;;;;;;;;;;;;;;27.53;nan;101808.78;5063324;28;20338;-59
2022/12/10 10:26:43;;;;;;;;;;;;;;;27.37;nan;101815.09;5075117;28;20027;-58
2022/12/10 10:29:11;;;;;;;;;;;;;;;27.34;nan;101818.59;5070789;28;20360;-58
2022/12/10 10:31:42;;;;;;;;;;;;;;;27.36;nan;101816.25;5068499;28;19921;-59
2022/12/10 10:34:22;;;;;;;;;;;;;;;27.40;nan;101817.19;5074801;28;19925;-59
2022/12/10 10:36:55;;;;;;;;;;;;;;;27.35;nan;101814.63;5060975;28;19955;-59
2022/12/10 10:39:27;;;;;;;;;;;;;;;27.44;nan;101819.25;5074784;28;19920;-58
2022/12/10 10:41:54;;;;;;;;;;;;;;;27.37;nan;101823.47;5074429;28;19979;-59
2022/12/10 10:44:21;;;;;;;;;;;;;;;27.49;nan;101819.03;5057724;28;19916;-59
2022/12/10 10:46:49;;;;;;;;;;;;;;;27.33;nan;101819.75;5073580;28;19946;-59
2022/12/10 10:49:22;;;;;;;;;;;;;;;27.12;nan;101813.53;5074211;28;19938;-59
2022/12/10 10:51:49;;;;;;;;;;;;;;;27.23;nan;101817.44;5063491;28;19920;-59
2022/12/10 10:54:37;;;;;;;;;;;;;;;27.27;nan;101812.78;5074333;28;19921;-59
2022/12/10 10:57:06;;;;;;;;;;;;;;;27.24;nan;101807.09;5080111;28;19929;-59
2022/12/10 10:59:34;;;;;;;;;;;;;;;27.25;nan;101809.53;5088260;28;19920;-59
2022/12/10 11:02:13;;;;;;;;;;;;;;;27.27;nan;101807.19;5075849;28;19920;-59
2022/12/10 11:04:46;;;;;;;;;;;;;;;27.04;nan;101798.53;5087761;28;19925;-59
2022/12/10 11:07:35;;;;;;;;;;;;;;;26.99;nan;101792.34;5085247;28;19970;-59
2022/12/10 11:10:04;;;;;;;;;;;;;;;27.13;nan;101794.81;5070877;28;19951;-59
2022/12/10 11:12:38;;;;;;;;;;;;;;;27.19;nan;101802.56;5074283;28;19920;-59
2022/12/10 11:15:22;;;;;;;;;;;;;;;27.00;nan;101800.41;5083538;28;19921;-59
2022/12/10 11:17:50;;;;;;;;;;;;;;;26.98;nan;101801.88;5076769;28;19921;-59
2022/12/10 11:20:18;;;;;;;;;;;;;;;26.96;nan;101795.84;5088442;28;19985;-59
2022/12/10 11:23:01;;;;;;;;;;;;;;;27.01;nan;101792.84;5085297;28;19920;-59
2022/12/10 11:25:46;;;;;;;;;;;;;;;27.05;nan;101793.75;5085607;28;19931;-60
2022/12/10 11:28:12;;;;;;;;;;;;;;;27.03;nan;101799.69;5075938;28;19924;-60
2022/12/10 11:30:44;;;;;;;;;;;;;;;27.11;nan;101795.16;5086398;28;19951;-59
2022/12/10 11:33:24;;;;;;;;;;;;;;;27.03;nan;101796.09;5084294;28;19935;-60
2022/12/10 11:36:00;;;;;;;;;;;;;;;27.09;nan;101783.50;5077637;28;20409;-59
2022/12/10 11:38:32;;;;;;;;;;;;;;;27.08;nan;101784.69;5063125;28;19938;-59
2022/12/10 11:41:02;;;;;;;;;;;;;;;26.99;nan;101778.41;5083813;28;20294;-59
2022/12/10 11:43:46;;;;;;;;;;;;;;;27.01;nan;101784.47;5081770;28;20015;-59
2022/12/10 11:46:15;;;;;;;;;;;;;;;26.96;nan;101795.84;5089572;28;19962;-59
2022/12/10 11:48:51;;;;;;;;;;;;;;;26.94;nan;101790.63;5080995;28;19971;-59
2022/12/10 11:51:32;;;;;;;;;;;;;;;26.84;nan;101790.25;5090569;28;19955;-59
2022/12/10 11:54:05;;;;;;;;;;;;;;;26.81;nan;101788.97;5076569;28;20027;-59
2022/12/10 11:56:35;;;;;;;;;;;;;;;26.74;nan;101794.31;5088410;28;19931;-59
2022/12/10 11:59:09;;;;;;;;;;;;;;;26.63;nan;101793.97;5072410;28;20075;-59
2022/12/10 12:01:35;;;;;;;;;;;;;;;26.67;nan;101806.06;5087663;28;19920;-59
2022/12/10 12:04:07;;;;;;;;;;;;;;;26.67;nan;101808.03;5076977;28;19920;-59
2022/12/10 12:06:40;;;;;;;;;;;;;;;26.54;nan;101807.19;5088109;28;20287;-59
2022/12/10 12:09:19;;;;;;;;;;;;;;;26.63;nan;101805.13;5084104;28;20014;-59
2022/12/10 12:11:58;;;;;;;;;;;;;;;26.60;nan;101811.41;5078121;28;19920;-59
2022/12/10 12:14:25;;;;;;;;;;;;;;;26.56;nan;101812.44;5062702;28;19916;-59
2022/12/10 12:17:03;;;;;;;;;;;;;;;26.34;nan;101810.88;5085569;28;19917;-59
2022/12/10 12:19:43;;;;;;;;;;;;;;;26.27;nan;101819.00;5086417;28;19927;-58
2022/12/10 12:22:30;;;;;;;;;;;;;;;26.23;nan;101815.28;5090205;28;19927;-58
2022/12/10 12:25:02;;;;;;;;;;;;;;;26.38;nan;101814.63;5082078;28;19920;-58
2022/12/10 12:27:40;;;;;;;;;;;;;;;26.47;nan;101818.13;5080153;28;19916;-58
2022/12/10 12:30:19;;;;;;;;;;;;;;;26.49;nan;101824.16;5090069;28;19920;-59
2022/12/10 12:32:50;;;;;;;;;;;;;;;26.35;nan;101832.84;5080754;28;19920;-58
2022/12/10 12:35:35;;;;;;;;;;;;;;;26.39;nan;101830.19;5081673;28;19952;-58
2022/12/10 12:38:06;;;;;;;;;;;;;;;26.47;nan;101835.66;5089757;28;20014;-58
2022/12/10 12:40:41;;;;;;;;;;;;;;;26.45;nan;101839.97;5077393;28;19999;-59
2022/12/10 12:43:12;;;;;;;;;;;;;;;26.48;nan;101842.06;5082195;28;20019;-59
2022/12/10 12:45:41;;;;;;;;;;;;;;;26.42;nan;101849.84;5087557;28;19920;-59
2022/12/10 12:48:16;;;;;;;;;;;;;;;26.45;nan;101845.53;5076376;28;19916;-59
2022/12/10 12:50:45;;;;;;;;;;;;;;;26.45;nan;101853.91;5089449;28;19920;-58
2022/12/10 12:53:13;;;;;;;;;;;;;;;26.44;nan;101853.09;5082140;28;20003;-58
2022/12/10 12:55:50;;;;;;;;;;;;;;;26.44;nan;101857.84;5087679;28;20277;-58
2022/12/10 12:58:32;;;;;;;;;;;;;;;26.48;nan;101859.59;5076244;28;19920;-58
2022/12/10 13:01:03;;;;;;;;;;;;;;;26.45;nan;101846.34;5083676;28;19991;-58
2022/12/10 13:03:29;;;;;;;;;;;;;;;26.42;nan;101849.84;5086548;28;19920;-58
2022/12/10 13:05:56;;;;;;;;;;;;;;;26.32;nan;101866.94;5076251;28;19927;-59
2022/12/10 13:08:25;;;;;;;;;;;;;;;25.72;nan;101864.75;5088724;28;19932;-60
2022/12/10 13:11:09;;;;;;;;;;;;;;;25.97;nan;101869.25;5080876;28;19922;-60
2022/12/10 13:13:40;;;;;;;;;;;;;;;26.34;nan;101863.81;5078586;28;19920;-60
2022/12/10 13:16:38;;;;;;;;;;;;;;;26.49;nan;101869.59;5073192;28;19966;-59